Time;durP1;ratioP1;P1;durP2;ratioP2;P2;SDS_P1;SDS_P2;PMS_P1;PMS_P2;Temp;Humidity;BMP_temperature;BMP_pressure;BME280_temperature;BME280_humidity;BME280_pressure;Samples;Min_cycle;Max_cycle;Signal;HPM_P1;HPM_P2
2023/01/23 00:00:37;;;;;;;26.13;15.52;;;2.10;81.90;;;;;;5022912;28;20049;-58
2023/01/23 00:03:02;;;;;;;25.73;16.02;;;2.20;82.00;;;;;;5026923;28;20038;-59
2023/01/23 00:05:28;;;;;;;24.90;14.98;;;2.10;81.90;;;;;;5026863;28;20460;-60
2023/01/23 00:07:53;;;;;;;23.98;14.50;;;2.10;81.90;;;;;;5023317;28;20087;-59
2023/01/23 00:10:19;;;;;;;22.88;14.30;;;2.00;82.00;;;;;;5024651;28;20105;-60
2023/01/23 00:12:47;;;;;;;24.02;14.80;;;2.00;82.20;;;;;;5019098;28;20033;-60
2023/01/23 00:15:14;;;;;;;23.63;13.55;;;2.00;82.30;;;;;;5020393;28;20032;-61
2023/01/23 00:17:40;;;;;;;24.08;14.45;;;2.00;82.40;;;;;;5023180;28;20077;-60
2023/01/23 00:20:07;;;;;;;24.00;14.30;;;2.00;82.50;;;;;;5022173;28;20148;-60
2023/01/23 00:22:33;;;;;;;23.77;14.30;;;2.00;82.50;;;;;;5018786;28;20052;-59
2023/01/23 00:24:58;;;;;;;25.08;14.82;;;2.00;82.50;;;;;;5015402;28;20029;-60
2023/01/23 00:27:24;;;;;;;23.90;14.25;;;2.00;82.50;;;;;;5019998;28;20741;-61
2023/01/23 00:29:52;;;;;;;24.80;14.55;;;2.00;82.60;;;;;;5020926;28;20523;-60
2023/01/23 00:32:17;;;;;;;24.70;15.05;;;2.00;82.60;;;;;;5018015;28;20049;-60
2023/01/23 00:34:44;;;;;;;26.85;16.08;;;2.00;82.50;;;;;;5019956;28;20037;-58
2023/01/23 00:37:10;;;;;;;25.48;15.52;;;2.00;82.60;;;;;;5017147;28;20046;-60
2023/01/23 00:39:35;;;;;;;24.73;15.05;;;2.00;82.50;;;;;;5020094;28;20080;-60
2023/01/23 00:42:01;;;;;;;24.88;15.05;;;2.00;82.50;;;;;;5017265;28;20052;-58
2023/01/23 00:44:27;;;;;;;25.13;14.75;;;2.00;82.60;;;;;;5021399;28;20532;-60
2023/01/23 00:46:52;;;;;;;25.20;15.02;;;2.00;82.60;;;;;;5018682;28;20045;-57
2023/01/23 00:49:18;;;;;;;25.73;14.63;;;2.00;82.50;;;;;;5020734;28;20493;-61
2023/01/23 00:51:44;;;;;;;27.20;15.48;;;2.00;82.50;;;;;;5017615;28;20036;-60
2023/01/23 00:54:10;;;;;;;24.98;14.57;;;2.00;82.30;;;;;;5023342;28;20471;-59
2023/01/23 00:56:36;;;;;;;24.77;14.55;;;2.00;82.20;;;;;;5023389;28;20124;-59
2023/01/23 00:59:02;;;;;;;25.38;14.63;;;2.00;82.10;;;;;;5017973;28;20055;-58
2023/01/23 01:01:30;;;;;;;24.95;14.38;;;2.00;82.00;;;;;;5019296;28;20044;-59
2023/01/23 01:03:56;;;;;;;24.60;14.57;;;2.00;81.80;;;;;;5020740;28;20029;-58
2023/01/23 01:06:21;;;;;;;27.17;15.65;;;2.00;81.70;;;;;;5023755;28;20038;-58
2023/01/23 01:08:47;;;;;;;24.88;15.10;;;2.00;81.50;;;;;;5024854;28;20101;-59
2023/01/23 01:11:13;;;;;;;24.45;14.75;;;2.00;81.40;;;;;;5021119;28;20680;-57
2023/01/23 01:13:38;;;;;;;25.30;14.85;;;2.00;81.20;;;;;;5018433;28;20037;-58
2023/01/23 01:16:04;;;;;;;26.60;15.20;;;2.00;80.90;;;;;;5026128;28;20034;-58
2023/01/23 01:18:30;;;;;;;27.52;15.15;;;2.00;80.80;;;;;;5024300;28;20528;-57
2023/01/23 01:20:56;;;;;;;25.90;15.02;;;2.00;80.70;;;;;;5025081;28;20034;-56
2023/01/23 01:23:22;;;;;;;24.80;14.75;;;2.00;80.40;;;;;;5026671;28;20033;-60
2023/01/23 01:25:47;;;;;;;26.10;15.52;;;2.00;80.40;;;;;;5025291;28;20042;-61
2023/01/23 01:28:13;;;;;;;29.75;16.05;;;2.00;80.30;;;;;;5021476;28;20041;-61
2023/01/23 01:30:40;;;;;;;26.65;14.68;;;1.90;80.00;;;;;;5022247;28;20523;-59
2023/01/23 01:33:06;;;;;;;26.98;14.88;;;1.90;80.10;;;;;;5022879;28;20669;-59
2023/01/23 01:35:32;;;;;;;26.65;15.18;;;1.90;80.20;;;;;;5022222;28;20038;-58
2023/01/23 01:37:58;;;;;;;28.90;15.45;;;1.90;80.20;;;;;;5024631;28;20041;-61
2023/01/23 01:40:28;;;;;;;26.48;15.02;;;1.90;80.20;;;;;;5024330;28;20049;-62
2023/01/23 01:42:57;;;;;;;25.92;14.77;;;1.90;80.10;;;;;;5019028;28;20059;-61
2023/01/23 01:46:00;;;;;;;26.60;15.93;;;1.90;80.00;;;;;;5022299;28;20099;-60
2023/01/23 01:48:50;;;;;;;28.25;15.90;;;1.90;80.00;;;;;;5026840;28;20045;-60
2023/01/23 01:51:31;;;;;;;25.33;14.52;;;1.90;80.20;;;;;;5025712;28;20543;-62
2023/01/23 01:54:21;;;;;;;25.05;14.63;;;1.90;80.20;;;;;;5025852;28;20049;-60
2023/01/23 01:56:49;;;;;;;24.80;14.63;;;1.80;80.00;;;;;;5022191;28;20049;-61
2023/01/23 01:59:17;;;;;;;25.75;14.68;;;1.90;80.10;;;;;;5027621;28;20041;-60
2023/01/23 02:01:46;;;;;;;25.60;14.68;;;1.90;80.00;;;;;;5021828;28;20034;-58
2023/01/23 02:04:12;;;;;;;26.02;15.20;;;1.80;80.00;;;;;;5027362;28;20034;-58
2023/01/23 02:06:37;;;;;;;24.10;13.95;;;1.80;79.90;;;;;;5026480;28;20511;-60
2023/01/23 02:09:32;;;;;;;25.27;14.88;;;1.80;79.90;;;;;;5023729;28;20510;-61
2023/01/23 02:11:58;;;;;;;27.15;14.45;;;1.80;79.90;;;;;;5019376;28;20481;-58
2023/01/23 02:14:24;;;;;;;27.52;14.93;;;1.80;79.90;;;;;;5021602;28;20083;-58
2023/01/23 02:16:51;;;;;;;25.73;15.10;;;1.80;79.90;;;;;;5023012;28;20489;-59
2023/01/23 02:19:42;;;;;;;28.75;16.30;;;1.80;79.90;;;;;;5023568;28;20503;-59
2023/01/23 02:22:38;;;;;;;27.48;16.02;;;1.70;79.80;;;;;;5027043;28;20443;-61
2023/01/23 02:25:39;;;;;;;29.90;16.77;;;1.70;79.80;;;;;;5024769;28;20078;-60
2023/01/23 02:28:06;;;;;;;27.77;15.82;;;1.70;80.00;;;;;;5024885;28;20428;-59
2023/01/23 02:30:32;;;;;;;26.98;15.93;;;1.60;80.00;;;;;;5022376;28;20037;-60
2023/01/23 02:33:07;;;;;;;29.80;16.55;;;1.60;80.20;;;;;;5025564;28;20488;-57
2023/01/23 02:35:34;;;;;;;27.98;16.02;;;1.60;80.20;;;;;;5026290;28;20393;-57
2023/01/23 02:38:03;;;;;;;29.90;16.88;;;1.60;80.40;;;;;;5021260;28;20491;-59
2023/01/23 02:40:35;;;;;;;30.98;16.20;;;1.60;80.40;;;;;;5019184;28;20053;-59
2023/01/23 02:43:03;;;;;;;31.55;16.98;;;1.50;80.50;;;;;;5021545;28;20061;-59
2023/01/23 02:45:30;;;;;;;30.83;16.67;;;1.60;80.60;;;;;;5018537;28;21931;-58
2023/01/23 02:47:55;;;;;;;30.48;17.00;;;1.50;80.40;;;;;;5021959;28;20079;-57
2023/01/23 02:50:21;;;;;;;32.70;18.23;;;1.60;80.50;;;;;;5025644;28;20038;-59
2023/01/23 02:52:49;;;;;;;32.20;17.17;;;1.50;80.40;;;;;;5024821;28;20046;-59
2023/01/23 02:55:16;;;;;;;32.67;17.75;;;1.50;80.50;;;;;;5023966;28;20030;-60
2023/01/23 02:57:44;;;;;;;30.05;17.65;;;1.50;80.40;;;;;;5021453;28;20041;-60
2023/01/23 03:00:18;;;;;;;32.30;16.85;;;1.50;80.60;;;;;;5022982;28;20329;-58
2023/01/23 03:02:46;;;;;;;32.58;17.33;;;1.50;80.60;;;;;;5022656;28;20037;-60
2023/01/23 03:05:12;;;;;;;34.20;17.75;;;1.50;80.60;;;;;;5023798;28;20670;-58
2023/01/23 03:07:37;;;;;;;30.85;16.80;;;1.50;80.70;;;;;;5020077;28;20496;-57
2023/01/23 03:10:04;;;;;;;30.05;16.27;;;1.50;80.70;;;;;;5018664;28;20145;-59
2023/01/23 03:12:29;;;;;;;33.17;17.20;;;1.50;80.60;;;;;;5018201;28;20123;-59
2023/01/23 03:14:56;;;;;;;29.23;16.50;;;1.50;80.70;;;;;;5020135;28;20497;-59
2023/01/23 03:17:22;;;;;;;33.58;18.05;;;1.50;80.90;;;;;;5021401;28;20057;-56
2023/01/23 03:19:48;;;;;;;30.52;16.73;;;1.50;80.70;;;;;;5020893;28;20117;-58
2023/01/23 03:22:13;;;;;;;32.75;17.13;;;1.50;80.70;;;;;;5025726;28;20041;-56
2023/01/23 03:24:39;;;;;;;30.52;16.92;;;1.50;80.60;;;;;;5025651;28;20646;-60
2023/01/23 03:27:05;;;;;;;28.20;15.40;;;1.50;80.60;;;;;;5019370;28;20065;-61
2023/01/23 03:32:16;;;;;;;30.85;16.70;;;1.50;80.40;;;;;;5020754;28;20043;-61
2023/01/23 03:34:42;;;;;;;31.73;17.25;;;1.40;80.40;;;;;;5023353;28;20128;-59
2023/01/23 03:37:10;;;;;;;31.00;16.38;;;1.40;80.50;;;;;;5025170;28;20063;-60
2023/01/23 03:42:21;;;;;;;32.38;17.67;;;1.40;80.60;;;;;;5021403;28;20099;-61
2023/01/23 03:44:47;;;;;;;32.15;17.00;;;1.40;80.70;;;;;;5024793;28;20052;-58
2023/01/23 03:47:12;;;;;;;27.75;15.20;;;1.40;80.80;;;;;;5019650;28;20033;-60
2023/01/23 03:49:38;;;;;;;29.65;17.02;;;1.40;80.80;;;;;;5019187;28;20488;-59
2023/01/23 03:52:04;;;;;;;32.75;17.35;;;1.60;81.00;;;;;;5022366;28;20183;-61
2023/01/23 03:54:30;;;;;;;33.58;17.58;;;1.40;80.90;;;;;;5019705;28;20405;-60
2023/01/23 03:56:56;;;;;;;31.58;16.90;;;1.40;80.90;;;;;;5020231;28;20539;-59
2023/01/23 03:59:21;;;;;;;34.42;17.40;;;1.40;80.90;;;;;;5023061;28;20558;-61
2023/01/23 04:01:47;;;;;;;30.92;17.25;;;1.40;80.90;;;;;;5023027;28;20048;-60
2023/01/23 04:04:13;;;;;;;33.35;17.70;;;1.40;80.90;;;;;;5022032;28;20171;-60
2023/01/23 04:06:39;;;;;;;32.40;16.92;;;1.40;80.90;;;;;;5021388;28;20045;-59
2023/01/23 04:09:04;;;;;;;31.02;16.73;;;1.40;80.90;;;;;;5022537;28;20500;-57
2023/01/23 04:11:30;;;;;;;31.13;17.33;;;1.40;81.00;;;;;;5022055;28;20049;-59
2023/01/23 04:13:56;;;;;;;31.92;17.65;;;1.40;81.00;;;;;;5023500;28;20044;-59
2023/01/23 04:16:22;;;;;;;32.85;16.77;;;1.40;81.00;;;;;;5019639;28;20037;-58
2023/01/23 04:18:49;;;;;;;32.28;17.45;;;1.40;81.10;;;;;;5018387;28;20496;-60
2023/01/23 04:21:15;;;;;;;32.13;17.35;;;1.40;81.10;;;;;;5021177;28;20107;-60
2023/01/23 04:23:40;;;;;;;32.55;17.77;;;1.40;81.10;;;;;;5020663;28;20408;-62
2023/01/23 04:26:06;;;;;;;30.60;16.75;;;1.40;81.10;;;;;;5020934;28;20040;-61
2023/01/23 04:28:31;;;;;;;31.75;16.90;;;1.40;81.10;;;;;;5016136;28;20069;-58
2023/01/23 04:30:57;;;;;;;31.63;17.50;;;1.40;81.00;;;;;;5019436;28;20210;-59
2023/01/23 04:33:23;;;;;;;33.30;17.10;;;1.40;80.90;;;;;;5014654;28;20034;-61
2023/01/23 04:36:01;;;;;;;33.33;17.50;;;1.40;80.90;;;;;;5020419;28;20036;-58
2023/01/23 04:38:28;;;;;;;31.95;17.25;;;1.40;80.90;;;;;;5013822;28;20076;-63
2023/01/23 04:40:54;;;;;;;34.55;17.70;;;1.40;80.90;;;;;;5017463;28;20041;-60
2023/01/23 04:43:20;;;;;;;32.60;16.75;;;1.40;80.90;;;;;;5021785;28;20158;-60
2023/01/23 04:45:49;;;;;;;32.80;17.52;;;1.40;80.90;;;;;;5015898;28;20033;-59
2023/01/23 04:48:14;;;;;;;32.97;17.02;;;1.40;81.00;;;;;;5019199;28;20037;-56
2023/01/23 04:50:40;;;;;;;32.47;18.00;;;1.40;81.00;;;;;;5016924;28;20528;-57
2023/01/23 04:53:06;;;;;;;31.77;17.50;;;1.40;80.90;;;;;;5018659;28;20073;-56
2023/01/23 04:55:32;;;;;;;36.83;19.52;;;1.40;80.90;;;;;;5018942;28;20038;-58
2023/01/23 04:57:58;;;;;;;37.85;17.73;;;1.30;80.90;;;;;;5019256;28;20552;-58
2023/01/23 05:00:24;;;;;;;31.00;17.02;;;1.30;80.90;;;;;;5018203;28;20599;-58
2023/01/23 05:02:49;;;;;;;31.15;16.90;;;1.30;80.90;;;;;;5017703;28;20511;-56
2023/01/23 05:05:20;;;;;;;31.65;16.67;;;1.30;80.70;;;;;;5019741;28;20041;-60
2023/01/23 05:07:46;;;;;;;32.70;17.65;;;1.30;80.80;;;;;;5021681;28;20465;-59
2023/01/23 05:10:13;;;;;;;32.30;16.70;;;1.30;80.70;;;;;;5017457;28;20070;-59
2023/01/23 05:12:39;;;;;;;31.02;16.33;;;1.30;80.70;;;;;;5014830;28;20038;-58
2023/01/23 05:15:06;;;;;;;31.20;15.70;;;1.30;80.60;;;;;;5019026;28;20095;-60
2023/01/23 05:17:32;;;;;;;30.65;16.02;;;1.30;80.40;;;;;;5017318;28;20353;-56
2023/01/23 05:19:57;;;;;;;29.48;15.57;;;1.30;80.40;;;;;;5016798;28;20480;-58
2023/01/23 05:22:23;;;;;;;32.08;16.33;;;1.30;80.40;;;;;;5020478;28;20273;-56
2023/01/23 05:24:49;;;;;;;31.20;16.75;;;1.30;80.40;;;;;;5024450;28;20034;-57
2023/01/23 05:27:14;;;;;;;32.75;17.20;;;1.30;80.20;;;;;;5023925;28;20429;-55
2023/01/23 05:29:40;;;;;;;29.15;16.40;;;1.20;80.10;;;;;;5024900;28;20045;-60
2023/01/23 05:32:06;;;;;;;29.88;15.20;;;1.20;80.00;;;;;;5024147;28;20025;-56
2023/01/23 05:34:31;;;;;;;31.52;16.50;;;1.20;80.10;;;;;;5022224;28;20120;-58
2023/01/23 05:36:57;;;;;;;31.50;16.50;;;1.20;80.00;;;;;;5022588;28;20030;-60
2023/01/23 05:39:23;;;;;;;35.55;18.70;;;1.20;80.00;;;;;;5024296;28;20420;-59
2023/01/23 05:41:48;;;;;;;34.50;17.98;;;1.20;80.00;;;;;;5024004;28;20128;-59
2023/01/23 05:44:14;;;;;;;32.78;17.48;;;1.20;79.90;;;;;;5023518;28;20171;-60
2023/01/23 05:46:39;;;;;;;29.80;16.02;;;1.20;79.80;;;;;;5024421;28;20033;-60
2023/01/23 05:49:05;;;;;;;31.42;17.15;;;1.20;79.70;;;;;;5024541;28;20045;-60
2023/01/23 05:51:32;;;;;;;33.38;17.48;;;1.20;79.60;;;;;;5023862;28;20489;-59
2023/01/23 05:53:59;;;;;;;32.38;16.95;;;1.10;79.50;;;;;;5024772;28;20034;-61
2023/01/23 05:56:24;;;;;;;31.33;16.45;;;1.10;79.60;;;;;;5024467;28;20199;-60
2023/01/23 05:58:50;;;;;;;30.38;16.33;;;1.10;79.70;;;;;;5024927;28;20056;-57
2023/01/23 06:01:16;;;;;;;31.35;16.00;;;1.10;79.70;;;;;;5028714;28;20037;-60
2023/01/23 06:03:42;;;;;;;30.95;16.27;;;1.10;79.80;;;;;;5029381;28;20412;-61
2023/01/23 06:06:08;;;;;;;27.52;14.82;;;1.10;79.90;;;;;;5029313;28;20038;-60
2023/01/23 06:08:33;;;;;;;30.40;16.38;;;1.10;79.90;;;;;;5028637;28;20033;-59
2023/01/23 06:10:59;;;;;;;31.10;16.35;;;1.10;80.00;;;;;;5025400;28;20060;-59
2023/01/23 06:13:25;;;;;;;30.38;16.00;;;1.10;80.00;;;;;;5029245;28;20038;-58
2023/01/23 06:15:52;;;;;;;33.15;16.90;;;1.10;80.10;;;;;;5027891;28;20030;-60
2023/01/23 06:18:17;;;;;;;30.73;16.15;;;1.10;80.20;;;;;;5027726;28;20029;-59
2023/01/23 06:20:43;;;;;;;31.95;16.50;;;1.10;80.30;;;;;;5026777;28;20038;-58
2023/01/23 06:23:08;;;;;;;30.05;16.48;;;1.10;80.30;;;;;;5026029;28;20079;-58
2023/01/23 06:25:35;;;;;;;30.80;16.05;;;1.10;80.50;;;;;;5026013;28;20049;-59
2023/01/23 06:28:01;;;;;;;33.88;16.75;;;1.10;80.70;;;;;;5027153;28;20991;-58
2023/01/23 06:30:26;;;;;;;29.35;15.60;;;1.00;80.70;;;;;;5025306;28;20075;-61
2023/01/23 06:32:52;;;;;;;32.15;16.67;;;1.00;80.90;;;;;;5028472;28;20030;-55
2023/01/23 06:35:18;;;;;;;33.80;16.98;;;1.00;81.00;;;;;;5027190;28;20346;-58
2023/01/23 06:37:43;;;;;;;32.45;16.38;;;1.00;81.20;;;;;;5025785;28;20037;-60
2023/01/23 06:40:12;;;;;;;31.25;15.60;;;1.00;81.30;;;;;;5026343;28;20038;-57
2023/01/23 06:42:41;;;;;;;28.55;15.18;;;1.10;81.30;;;;;;5026669;28;20045;-59
2023/01/23 06:45:09;;;;;;;29.67;15.70;;;1.00;81.30;;;;;;5023306;28;20091;-59
2023/01/23 06:47:35;;;;;;;28.95;14.68;;;1.10;81.40;;;;;;5027246;28;20048;-58
2023/01/23 06:50:01;;;;;;;28.48;15.23;;;1.10;81.40;;;;;;5025512;28;20060;-57
2023/01/23 06:52:27;;;;;;;27.73;15.43;;;1.10;81.50;;;;;;5026429;28;20045;-58
2023/01/23 06:54:53;;;;;;;27.73;14.93;;;1.10;81.50;;;;;;5026188;28;20519;-59
2023/01/23 06:57:18;;;;;;;28.15;14.45;;;1.10;81.60;;;;;;5026641;28;20034;-58
2023/01/23 06:59:44;;;;;;;26.25;14.43;;;1.10;81.50;;;;;;5027072;28;20044;-59
2023/01/23 07:02:10;;;;;;;27.58;14.70;;;1.10;81.60;;;;;;5027489;28;20081;-57
2023/01/23 07:04:36;;;;;;;25.67;13.88;;;1.00;81.60;;;;;;5026676;28;20132;-60
2023/01/23 07:07:02;;;;;;;24.27;14.07;;;1.00;81.60;;;;;;5025792;28;20191;-59
2023/01/23 07:09:27;;;;;;;25.88;14.50;;;1.00;81.60;;;;;;5026659;28;20128;-59
2023/01/23 07:11:53;;;;;;;26.33;13.60;;;1.00;81.70;;;;;;5025835;28;20037;-58
2023/01/23 07:14:19;;;;;;;27.17;14.30;;;1.00;81.80;;;;;;5026086;28;20033;-60
2023/01/23 07:16:44;;;;;;;24.77;13.45;;;1.00;81.90;;;;;;5025148;28;20528;-59
2023/01/23 07:19:10;;;;;;;25.58;13.88;;;1.00;82.00;;;;;;5025764;28;20026;-57
2023/01/23 07:21:36;;;;;;;27.73;13.55;;;1.00;82.10;;;;;;5026634;28;20041;-59
2023/01/23 07:24:01;;;;;;;27.08;14.23;;;1.00;82.10;;;;;;5024797;28;20041;-61
2023/01/23 07:26:27;;;;;;;26.60;14.48;;;1.00;82.10;;;;;;5026512;28;20179;-60
2023/01/23 07:28:52;;;;;;;27.05;14.70;;;1.00;82.20;;;;;;5026161;28;20455;-59
2023/01/23 07:31:18;;;;;;;27.58;14.38;;;0.90;82.30;;;;;;5026015;28;20044;-59
2023/01/23 07:33:44;;;;;;;29.55;14.40;;;0.90;82.30;;;;;;5026975;28;20038;-60
2023/01/23 07:36:12;;;;;;;26.13;14.25;;;0.90;82.50;;;;;;5025153;28;20037;-59
2023/01/23 07:38:38;;;;;;;25.60;13.80;;;0.90;82.60;;;;;;5025394;28;20167;-60
2023/01/23 07:41:04;;;;;;;24.83;13.88;;;0.90;83.50;;;;;;5026249;28;20499;-59
2023/01/23 07:43:29;;;;;;;24.48;13.77;;;0.90;82.60;;;;;;5025646;28;20727;-60
2023/01/23 07:46:01;;;;;;;27.02;14.45;;;0.90;82.70;;;;;;5025951;28;20042;-60
2023/01/23 07:48:28;;;;;;;23.27;13.18;;;0.90;82.80;;;;;;5024066;28;20120;-61
2023/01/23 07:50:54;;;;;;;24.75;13.85;;;0.90;82.80;;;;;;5025920;28;20492;-60
2023/01/23 07:53:19;;;;;;;25.58;13.25;;;0.90;83.00;;;;;;5025996;28;20117;-60
2023/01/23 07:55:45;;;;;;;24.73;13.60;;;0.90;83.00;;;;;;5023570;28;20051;-60
2023/01/23 07:58:11;;;;;;;26.13;12.95;;;0.90;83.00;;;;;;5025416;28;20033;-60
2023/01/23 08:00:37;;;;;;;23.58;13.13;;;0.90;83.00;;;;;;5023013;28;20124;-60
2023/01/23 08:03:02;;;;;;;23.65;12.30;;;0.90;83.00;;;;;;5025685;28;20443;-60
2023/01/23 08:05:28;;;;;;;21.48;12.15;;;0.90;83.10;;;;;;5025903;28;20029;-60
2023/01/23 08:07:54;;;;;;;21.30;11.55;;;1.00;83.10;;;;;;5025549;28;20034;-61
2023/01/23 08:10:19;;;;;;;22.50;11.80;;;0.90;83.00;;;;;;5025250;28;20418;-60
2023/01/23 08:12:45;;;;;;;21.65;11.95;;;1.00;83.20;;;;;;5025407;28;20037;-60
2023/01/23 08:15:11;;;;;;;22.27;11.73;;;1.00;83.00;;;;;;5025665;28;20053;-60
2023/01/23 08:17:36;;;;;;;21.08;11.70;;;1.00;83.10;;;;;;5025205;28;20033;-59
2023/01/23 08:20:03;;;;;;;21.35;12.38;;;1.00;83.00;;;;;;5023248;28;20578;-59
2023/01/23 08:22:29;;;;;;;21.15;12.57;;;1.00;83.10;;;;;;5023696;28;20405;-60
2023/01/23 08:24:54;;;;;;;21.45;11.75;;;1.00;83.00;;;;;;5024715;28;20037;-61
2023/01/23 08:27:20;;;;;;;22.38;12.05;;;1.00;83.00;;;;;;5024773;28;20086;-58
2023/01/23 08:29:45;;;;;;;24.05;13.27;;;1.10;83.20;;;;;;5022642;28;20475;-59
2023/01/23 08:32:11;;;;;;;21.85;12.73;;;1.10;83.20;;;;;;5025688;28;20617;-55
2023/01/23 08:34:37;;;;;;;22.65;13.15;;;1.10;83.20;;;;;;5025160;28;20033;-58
2023/01/23 08:37:02;;;;;;;22.00;12.75;;;1.10;83.20;;;;;;5023154;28;20030;-59
2023/01/23 08:39:28;;;;;;;21.60;12.13;;;1.10;83.20;;;;;;5024325;28;20045;-60
2023/01/23 08:41:53;;;;;;;20.30;12.35;;;1.10;83.20;;;;;;5023600;28;20064;-59
2023/01/23 08:44:19;;;;;;;24.13;12.82;;;1.10;83.10;;;;;;5025127;28;20175;-56
2023/01/23 08:46:45;;;;;;;22.38;12.45;;;1.10;83.30;;;;;;5024445;28;20046;-58
2023/01/23 08:49:11;;;;;;;23.27;13.23;;;1.10;83.20;;;;;;5023856;28;20037;-59
2023/01/23 08:51:37;;;;;;;24.88;14.20;;;1.10;83.30;;;;;;5025654;28;20210;-58
2023/01/23 08:54:03;;;;;;;25.13;13.80;;;1.10;83.30;;;;;;5023202;28;20046;-58
2023/01/23 08:56:28;;;;;;;24.00;13.73;;;1.10;83.40;;;;;;5025013;28;20038;-55
2023/01/23 08:58:54;;;;;;;23.13;12.77;;;1.10;83.50;;;;;;5023333;28;20087;-58
2023/01/23 09:01:25;;;;;;;27.35;14.27;;;1.20;83.60;;;;;;5023314;28;20049;-58
2023/01/23 09:03:51;;;;;;;27.17;14.38;;;1.20;83.90;;;;;;5021932;28;20410;-57
2023/01/23 09:06:19;;;;;;;28.25;14.75;;;1.20;83.70;;;;;;5025729;28;20071;-60
2023/01/23 09:08:45;;;;;;;30.35;15.30;;;1.20;83.80;;;;;;5023651;28;20041;-57
2023/01/23 09:11:12;;;;;;;30.73;16.80;;;1.20;83.90;;;;;;5024573;28;20041;-57
2023/01/23 09:13:38;;;;;;;30.20;15.23;;;1.20;84.00;;;;;;5025445;28;20028;-59
2023/01/23 09:16:04;;;;;;;29.83;16.58;;;1.30;84.00;;;;;;5024380;28;20436;-60
2023/01/23 09:18:30;;;;;;;29.33;15.70;;;1.30;84.10;;;;;;5024774;28;20076;-57
2023/01/23 09:20:56;;;;;;;27.42;15.13;;;1.30;84.20;;;;;;5024781;28;20507;-59
2023/01/23 09:23:22;;;;;;;26.42;14.35;;;1.30;84.10;;;;;;5025715;28;20072;-60
2023/01/23 09:25:48;;;;;;;27.13;14.70;;;1.30;84.00;;;;;;5024037;28;20048;-60
2023/01/23 09:28:13;;;;;;;27.45;14.23;;;1.30;84.00;;;;;;5025104;28;20501;-60
2023/01/23 09:30:39;;;;;;;29.98;15.38;;;1.40;84.00;;;;;;5024189;28;20038;-57
2023/01/23 09:33:05;;;;;;;26.25;14.18;;;1.40;84.00;;;;;;5026492;28;20037;-60
2023/01/23 09:35:32;;;;;;;27.80;15.00;;;1.40;84.00;;;;;;5028639;28;20508;-59
2023/01/23 09:38:00;;;;;;;28.80;14.88;;;1.40;84.00;;;;;;5029860;28;20112;-59
2023/01/23 09:40:35;;;;;;;28.15;14.27;;;1.40;84.00;;;;;;5029131;28;20037;-60
2023/01/23 09:43:11;;;;;;;25.08;14.20;;;1.40;84.10;;;;;;5028879;28;20523;-61
2023/01/23 09:45:38;;;;;;;27.38;14.13;;;1.50;84.00;;;;;;5027654;28;20562;-60
2023/01/23 09:48:36;;;;;;;27.48;13.80;;;1.50;84.00;;;;;;5028715;28;20053;-61
2023/01/23 09:51:10;;;;;;;27.00;15.35;;;1.50;84.10;;;;;;4971906;28;20081;-61
2023/01/23 09:53:39;;;;;;;30.25;15.50;;;1.50;84.10;;;;;;5027291;28;20431;-61
2023/01/23 09:56:21;;;;;;;29.02;15.32;;;1.50;84.00;;;;;;5028082;28;20053;-61
2023/01/23 09:58:59;;;;;;;31.30;15.75;;;1.60;84.30;;;;;;5026668;28;20041;-60
2023/01/23 10:01:29;;;;;;;29.83;16.35;;;1.60;84.10;;;;;;5028511;28;20037;-60
2023/01/23 10:03:56;;;;;;;29.02;15.00;;;1.60;84.00;;;;;;5029087;28;20033;-59
2023/01/23 10:06:23;;;;;;;25.25;13.65;;;1.60;84.00;;;;;;5028408;28;20037;-58
2023/01/23 10:09:25;;;;;;;24.08;13.30;;;1.70;84.00;;;;;;5026299;28;20033;-59
2023/01/23 10:12:27;;;;;;;37.42;12.73;;;1.70;84.10;;;;;;5023547;28;20033;-60
2023/01/23 10:15:27;;;;;;;24.42;13.50;;;1.70;84.00;;;;;;5026537;28;20064;-59
2023/01/23 10:18:11;;;;;;;27.08;14.07;;;1.70;84.70;;;;;;5026924;28;20037;-55
2023/01/23 10:20:57;;;;;;;27.23;15.05;;;1.70;83.70;;;;;;5027197;28;20041;-59
2023/01/23 10:23:23;;;;;;;26.85;14.77;;;1.80;84.50;;;;;;5029429;28;20493;-58
2023/01/23 10:25:49;;;;;;;25.42;14.30;;;1.80;83.40;;;;;;5027303;28;20038;-56
2023/01/23 10:28:33;;;;;;;35.92;17.13;;;1.80;83.50;;;;;;5026643;28;20029;-56
2023/01/23 10:31:02;;;;;;;25.80;14.30;;;1.80;83.90;;;;;;5027886;28;20080;-57
2023/01/23 10:33:50;;;;;;;23.55;13.23;;;1.80;83.60;;;;;;5028634;28;20563;-58
2023/01/23 10:36:26;;;;;;;27.40;14.60;;;1.80;83.90;;;;;;5028308;28;20037;-59
2023/01/23 10:38:56;;;;;;;24.70;13.80;;;1.90;83.80;;;;;;5027313;28;20041;-57
2023/01/23 10:41:22;;;;;;;25.08;13.60;;;1.90;83.70;;;;;;5028567;28;20045;-59
2023/01/23 10:43:52;;;;;;;26.65;13.38;;;1.90;83.60;;;;;;5025144;28;20409;-60
2023/01/23 10:46:30;;;;;;;24.27;12.80;;;1.90;83.70;;;;;;5026751;28;20033;-60
2023/01/23 10:48:57;;;;;;;22.60;12.75;;;1.90;83.70;;;;;;5026652;28;20045;-55
2023/01/23 10:51:47;;;;;;;27.10;14.18;;;1.90;83.80;;;;;;5027333;28;20037;-59
2023/01/23 10:54:21;;;;;;;24.70;13.60;;;2.00;84.00;;;;;;5028091;28;20061;-55
2023/01/23 10:56:47;;;;;;;24.73;13.52;;;2.00;83.80;;;;;;5026230;28;20378;-59
2023/01/23 10:59:27;;;;;;;27.02;13.57;;;2.00;83.70;;;;;;5027007;28;20036;-58
2023/01/23 11:02:29;;;;;;;26.20;14.13;;;2.10;83.80;;;;;;5026962;28;20080;-59
2023/01/23 11:04:55;;;;;;;27.02;14.40;;;2.10;83.90;;;;;;5020239;28;20049;-56
2023/01/23 11:07:35;;;;;;;24.92;13.05;;;2.10;83.60;;;;;;5028590;28;20033;-57
2023/01/23 11:10:03;;;;;;;22.77;12.95;;;2.20;84.50;;;;;;5026517;28;20050;-59
2023/01/23 11:12:31;;;;;;;26.10;14.27;;;2.20;83.60;;;;;;5023511;28;20040;-56
2023/01/23 11:15:24;;;;;;;24.40;14.15;;;2.20;83.70;;;;;;5025720;28;20033;-59
2023/01/23 11:17:52;;;;;;;24.23;13.82;;;2.20;83.70;;;;;;5026984;28;20084;-59
2023/01/23 11:20:25;;;;;;;24.23;13.63;;;2.30;83.50;;;;;;5027614;28;20025;-59
2023/01/23 11:23:12;;;;;;;23.05;12.80;;;2.30;83.40;;;;;;5026948;28;20037;-60
2023/01/23 11:25:40;;;;;;;23.23;12.60;;;2.30;84.10;;;;;;5026466;28;20578;-60
2023/01/23 11:28:26;;;;;;;24.30;12.98;;;2.30;83.10;;;;;;5027926;28;20535;-61
2023/01/23 11:31:12;;;;;;;25.00;13.02;;;2.40;83.20;;;;;;5025307;28;20038;-61
2023/01/23 11:34:03;;;;;;;25.35;14.18;;;2.30;83.00;;;;;;5026964;28;20038;-56
2023/01/23 11:37:01;;;;;;;24.77;13.00;;;2.30;83.00;;;;;;5026866;28;21055;-61
2023/01/23 11:39:41;;;;;;;25.27;13.07;;;2.40;82.90;;;;;;5025466;28;20037;-61
2023/01/23 11:42:10;;;;;;;25.95;14.25;;;2.30;82.60;;;;;;5026197;28;20049;-60
2023/01/23 11:44:38;;;;;;;23.38;13.35;;;2.40;82.80;;;;;;5024721;28;20393;-60
2023/01/23 11:47:22;;;;;;;27.45;14.52;;;2.30;82.70;;;;;;5026375;28;20286;-59
2023/01/23 11:50:06;;;;;;;23.65;13.93;;;2.30;82.80;;;;;;5026129;28;20042;-59
2023/01/23 11:52:32;;;;;;;27.67;14.38;;;2.30;82.60;;;;;;5025683;28;20073;-58
2023/01/23 11:55:36;;;;;;;27.05;14.07;;;2.30;82.60;;;;;;5025090;28;20124;-59
2023/01/23 11:58:21;;;;;;;26.23;13.73;;;2.30;82.80;;;;;;5023856;28;20041;-56
2023/01/23 12:01:19;;;;;;;26.58;13.93;;;2.30;82.90;;;;;;5025799;28;20538;-60
2023/01/23 12:04:05;;;;;;;28.90;15.65;;;2.30;83.00;;;;;;5024173;28;20029;-58
2023/01/23 12:06:42;;;;;;;29.73;15.57;;;2.30;82.90;;;;;;5027057;28;20037;-58
2023/01/23 12:09:16;;;;;;;38.88;18.90;;;2.30;83.00;;;;;;5027134;28;20049;-60
2023/01/23 12:11:51;;;;;;;29.08;14.90;;;2.30;83.00;;;;;;5023021;28;20116;-55
2023/01/23 12:14:28;;;;;;;29.08;15.00;;;2.30;83.10;;;;;;5026155;28;20382;-58
2023/01/23 12:17:07;;;;;;;27.35;13.82;;;2.30;83.20;;;;;;5026570;28;20048;-59
2023/01/23 12:19:48;;;;;;;27.85;14.48;;;2.40;83.30;;;;;;5025838;28;20448;-57
2023/01/23 12:22:27;;;;;;;26.33;14.20;;;2.40;83.30;;;;;;5024361;28;20045;-57
2023/01/23 12:25:08;;;;;;;28.20;14.55;;;2.40;83.40;;;;;;5025370;28;20422;-58
2023/01/23 12:27:44;;;;;;;23.15;12.82;;;2.50;84.30;;;;;;5027577;28;20059;-60
2023/01/23 12:30:24;;;;;;;33.88;17.90;;;2.50;83.30;;;;;;5023592;28;20054;-58
2023/01/23 12:33:11;;;;;;;48.67;22.02;;;2.50;83.10;;;;;;5025296;28;20064;-59
2023/01/23 12:35:39;;;;;;;28.55;15.23;;;2.50;83.00;;;;;;5024893;28;20110;-56
2023/01/23 12:38:10;;;;;;;27.63;14.82;;;2.50;82.90;;;;;;5024293;28;20551;-58
2023/01/23 12:41:08;;;;;;;28.25;14.75;;;2.60;82.80;;;;;;5024945;28;20044;-58
2023/01/23 12:43:46;;;;;;;27.58;14.60;;;2.60;83.00;;;;;;4999922;28;20068;-56
2023/01/23 12:46:22;;;;;;;23.70;13.25;;;2.60;82.90;;;;;;5025035;28;20045;-57
2023/01/23 12:49:02;;;;;;;27.58;14.38;;;2.60;82.80;;;;;;5025322;28;20045;-58
2023/01/23 12:51:40;;;;;;;24.83;13.85;;;2.60;82.80;;;;;;5027643;28;20052;-60
2023/01/23 12:54:15;;;;;;;25.33;13.63;;;2.60;82.80;;;;;;5027735;28;20036;-57